Time;durP1;ratioP1;P1;durP2;ratioP2;P2;SDS_P1;SDS_P2;PMS_P1;PMS_P2;Temp;Humidity;BMP_temperature;BMP_pressure;BME280_temperature;BME280_humidity;BME280_pressure;Samples;Min_cycle;Max_cycle;Signal;HPM_P1;HPM_P2
2021/07/11 00:00:20;;;;;;;0.20;0.20;;;;;;;23.38;55.12;101713.94;5086771;28;20659;-75
2021/07/11 00:02:45;;;;;;;0.20;0.20;;;;;;;23.36;55.08;101710.63;5086237;28;20660;-75
2021/07/11 00:05:13;;;;;;;0.17;0.10;;;;;;;23.35;55.27;101708.16;5087405;28;20036;-74
2021/07/11 00:07:39;;;;;;;0.20;0.20;;;;;;;23.34;55.24;101714.47;5090354;28;20120;-75
2021/07/11 00:10:07;;;;;;;0.20;0.20;;;;;;;23.32;55.17;101712.00;5088678;28;20032;-75
2021/07/11 00:12:33;;;;;;;0.17;0.17;;;;;;;23.32;55.30;101708.50;5083773;28;20028;-75
2021/07/11 00:14:58;;;;;;;0.20;0.20;;;;;;;23.30;55.27;101710.53;5077627;28;20039;-75
2021/07/11 00:17:24;;;;;;;0.20;0.20;;;;;;;23.29;55.44;101715.00;5084387;28;20040;-75
2021/07/11 00:19:50;;;;;;;0.10;0.10;;;;;;;23.28;55.22;101716.03;5084126;28;20032;-75
2021/07/11 00:22:16;;;;;;;0.20;0.20;;;;;;;23.27;55.22;101706.41;5099824;27;20158;-75
2021/07/11 00:24:43;;;;;;;0.20;0.20;;;;;;;23.26;55.23;101706.59;5107670;27;20389;-75
2021/07/11 00:27:10;;;;;;;0.32;0.32;;;;;;;23.25;55.29;101700.44;5090690;27;20423;-75
2021/07/11 00:29:35;;;;;;;0.10;0.10;;;;;;;23.23;55.49;101702.47;5087861;28;20028;-75
2021/07/11 00:32:02;;;;;;;0.10;0.10;;;;;;;23.23;55.43;101696.31;5088741;28;20056;-75
2021/07/11 00:34:28;;;;;;;0.13;0.13;;;;;;;23.20;55.47;101693.03;5106558;28;20043;-75
2021/07/11 00:36:54;;;;;;;0.28;0.28;;;;;;;23.21;55.42;101704.47;5107504;27;20465;-75
2021/07/11 00:39:20;;;;;;;0.20;0.20;;;;;;;23.19;55.45;101693.22;5083948;28;20050;-75
2021/07/11 00:41:46;;;;;;;0.30;0.30;;;;;;;23.17;55.32;101693.41;5104788;27;20482;-75
2021/07/11 00:44:12;;;;;;;0.10;0.10;;;;;;;23.16;55.78;101699.72;5092038;28;20101;-75
2021/07/11 00:46:45;;;;;;;0.40;0.40;;;;;;;23.15;55.54;101699.88;5103927;27;20120;-75
2021/07/11 00:49:13;;;;;;;0.10;0.10;;;;;;;23.14;55.51;101698.22;5056837;28;20032;-74
2021/07/11 00:51:40;;;;;;;0.20;0.20;;;;;;;23.12;55.65;101695.75;5087963;28;20040;-74
2021/07/11 00:54:07;;;;;;;0.25;0.25;;;;;;;23.11;55.53;101702.06;5086586;28;20489;-75
2021/07/11 00:56:33;;;;;;;0.20;0.20;;;;;;;23.11;55.54;101696.75;5105276;27;20055;-75
2021/07/11 00:58:59;;;;;;;0.17;0.17;;;;;;;23.09;55.62;101704.06;5086474;28;20438;-75
2021/07/11 01:01:36;;;;;;;0.30;0.30;;;;;;;23.09;55.87;101705.91;5082530;28;20031;-75
2021/07/11 01:04:07;;;;;;;0.15;0.15;;;;;;;23.07;55.62;101706.09;5106290;27;20106;-75
2021/07/11 01:06:39;;;;;;;0.30;0.30;;;;;;;23.07;55.87;101705.28;5090099;28;20096;-75
2021/07/11 01:09:10;;;;;;;0.20;0.20;;;;;;;23.06;55.63;101711.59;5086288;28;20489;-75
2021/07/11 01:11:43;;;;;;;0.10;0.10;;;;;;;23.05;55.94;101707.28;5088096;27;20314;-75
2021/07/11 01:14:10;;;;;;;0.65;0.20;;;;;;;23.04;55.74;101706.47;5088549;28;20031;-75
2021/07/11 01:16:37;;;;;;;0.30;0.30;;;;;;;23.04;56.01;101708.28;5087518;27;20062;-75
2021/07/11 01:19:19;;;;;;;0.30;0.30;;;;;;;23.03;55.72;101709.28;5073049;28;20036;-75
2021/07/11 01:21:52;;;;;;;0.20;0.20;;;;;;;23.02;55.49;101716.44;5105570;27;20048;-75
2021/07/11 01:24:32;;;;;;;0.10;0.10;;;;;;;23.01;55.90;101708.66;5088445;28;20050;-75
2021/07/11 01:27:02;;;;;;;0.20;0.20;;;;;;;23.00;55.91;101713.16;5106320;27;20157;-75
2021/07/11 01:29:29;;;;;;;0.10;0.10;;;;;;;23.00;55.81;101714.97;5104318;28;20511;-75
2021/07/11 01:31:56;;;;;;;0.20;0.20;;;;;;;22.99;55.85;101708.84;5068985;27;20032;-74
2021/07/11 01:34:23;;;;;;;0.17;0.17;;;;;;;22.98;55.90;101715.16;5109115;27;20077;-75
2021/07/11 01:36:50;;;;;;;0.20;0.20;;;;;;;22.97;55.78;101705.50;5084490;28;20043;-75
2021/07/11 01:39:18;;;;;;;0.20;0.20;;;;;;;22.97;55.66;101710.81;5104709;27;20047;-74
2021/07/11 01:41:46;;;;;;;0.20;0.20;;;;;;;22.96;55.95;101709.16;5088313;28;20077;-75
2021/07/11 01:44:13;;;;;;;0.15;0.15;;;;;;;22.95;55.73;101701.38;5102226;28;20115;-75
2021/07/11 01:46:40;;;;;;;0.30;0.30;;;;;;;22.93;56.13;101698.91;5087120;28;20079;-75
2021/07/11 01:49:08;;;;;;;0.28;0.28;;;;;;;22.92;55.76;101697.25;5082427;27;20034;-74
2021/07/11 01:51:36;;;;;;;0.20;0.20;;;;;;;22.92;55.93;101705.22;5082366;28;20031;-75
2021/07/11 01:54:03;;;;;;;0.10;0.10;;;;;;;22.91;56.00;101703.56;5089459;27;20054;-74
2021/07/11 01:56:32;;;;;;;0.20;0.20;;;;;;;22.91;55.98;101699.09;5103660;28;20489;-74
2021/07/11 01:59:00;;;;;;;0.25;0.25;;;;;;;22.89;55.84;101698.44;5084582;27;20039;-75
2021/07/11 02:01:32;;;;;;;0.30;0.30;;;;;;;22.88;56.15;101693.31;5085440;28;20139;-75
2021/07/11 02:04:07;;;;;;;0.22;0.22;;;;;;;22.88;55.79;101699.44;5087697;28;20031;-75
2021/07/11 02:06:35;;;;;;;0.20;0.20;;;;;;;22.87;56.03;101705.78;5063007;28;20043;-74
2021/07/11 02:09:11;;;;;;;0.20;0.20;;;;;;;22.87;55.89;101702.28;5087259;28;20047;-75
2021/07/11 02:11:39;;;;;;;0.20;0.20;;;;;;;22.85;56.10;101709.63;5087494;28;20042;-75
2021/07/11 02:14:12;;;;;;;0.20;0.20;;;;;;;22.84;55.91;101711.44;5106677;28;20040;-75
2021/07/11 02:16:51;;;;;;;0.10;0.10;;;;;;;22.84;56.17;101711.44;5087733;28;20508;-75
2021/07/11 02:19:24;;;;;;;0.30;0.30;;;;;;;22.83;56.23;101708.97;5072519;28;20036;-75
2021/07/11 02:21:53;;;;;;;0.20;0.20;;;;;;;22.83;56.21;101708.97;5105337;27;20051;-75
2021/07/11 02:24:19;;;;;;;0.20;0.20;;;;;;;22.83;56.25;101711.63;5089333;28;20031;-74
2021/07/11 02:26:49;;;;;;;0.20;0.20;;;;;;;;;;5104073;27;20435;-75
2021/07/11 02:29:14;;;;;;;0.20;0.20;;;;;;;;;;5103655;27;20074;-75
2021/07/11 02:31:45;;;;;;;0.20;0.20;;;;;;;22.80;56.10;101707.47;5104864;28;20134;-75
2021/07/11 02:34:13;;;;;;;0.20;0.20;;;;;;;22.80;56.16;101703.97;5104302;28;20027;-75
2021/07/11 02:36:49;;;;;;;0.17;0.17;;;;;;;22.78;55.89;101701.47;5103275;28;20091;-75
2021/07/11 02:39:18;;;;;;;0.20;0.20;;;;;;;22.78;56.09;101692.69;5109312;27;20046;-75
2021/07/11 02:41:55;;;;;;;0.10;0.10;;;;;;;22.77;55.94;101693.69;5088098;28;20050;-75
2021/07/11 02:44:24;;;;;;;0.20;0.20;;;;;;;22.76;56.03;101692.88;5086762;28;20118;-75
2021/07/11 02:46:58;;;;;;;0.30;0.30;;;;;;;22.76;56.19;101692.03;5088950;28;20039;-75
2021/07/11 02:49:26;;;;;;;0.30;0.30;;;;;;;22.75;55.97;101688.56;5105050;28;20561;-75
2021/07/11 02:52:00;;;;;;;0.20;0.20;;;;;;;22.74;56.00;101686.91;5085763;28;20639;-75
2021/07/11 02:54:32;;;;;;;0.20;0.20;;;;;;;22.75;56.26;101685.09;5101172;28;20160;-74
2021/07/11 02:57:02;;;;;;;0.30;0.30;;;;;;;22.73;56.30;101687.91;5088299;28;20388;-75
2021/07/11 02:59:30;;;;;;;0.10;0.10;;;;;;;22.73;56.34;101687.91;5103300;28;20481;-74
2021/07/11 03:02:02;;;;;;;0.20;0.20;;;;;;;22.73;56.04;101687.09;5086066;28;20031;-74
2021/07/11 03:04:36;;;;;;;0.10;0.10;;;;;;;22.72;56.24;101683.63;5084389;28;20041;-75
2021/07/11 03:07:02;;;;;;;0.30;0.30;;;;;;;22.73;56.27;101681.78;5101534;28;20489;-75
2021/07/11 03:09:28;;;;;;;0.10;0.10;;;;;;;22.72;55.99;101683.63;5105105;28;20048;-75
2021/07/11 03:11:55;;;;;;;0.30;0.30;;;;;;;22.71;56.30;101683.78;5086191;28;20031;-75
2021/07/11 03:14:24;;;;;;;0.20;0.20;;;;;;;22.70;56.37;101688.28;5089781;27;20042;-75
2021/07/11 03:16:58;;;;;;;0.30;0.30;;;;;;;22.70;56.11;101692.78;5091896;27;20031;-74
2021/07/11 03:19:28;;;;;;;0.15;0.15;;;;;;;22.69;56.09;101691.94;5091949;27;20401;-75
2021/07/11 03:21:58;;;;;;;0.17;0.17;;;;;;;22.70;56.03;101690.13;5109214;27;20099;-75
2021/07/11 03:24:29;;;;;;;0.30;0.30;;;;;;;22.69;56.30;101696.44;5085705;28;20482;-75
2021/07/11 03:26:57;;;;;;;0.10;0.10;;;;;;;22.68;56.23;101697.44;5103465;28;20036;-75
2021/07/11 03:29:30;;;;;;;0.10;0.10;;;;;;;22.68;56.10;101692.13;5106776;28;20039;-74
2021/07/11 03:31:57;;;;;;;0.20;0.20;;;;;;;22.68;56.27;101694.78;5069897;27;20043;-74
2021/07/11 03:34:30;;;;;;;0.10;0.10;;;;;;;22.66;56.53;101696.78;5086767;28;20062;-75
2021/07/11 03:37:07;;;;;;;;;;;;;;;22.66;56.36;101691.47;5087096;27;20019;-75
2021/07/11 03:39:41;;;;;;;0.22;0.22;;;;;;;22.65;56.26;101693.31;5078424;28;19930;-75
2021/07/11 03:42:11;;;;;;;0.30;0.30;;;;;;;22.65;56.15;101706.59;5105624;27;20036;-75
2021/07/11 03:44:40;;;;;;;0.10;0.10;;;;;;;22.64;56.14;101710.25;5083880;28;20032;-75
2021/07/11 03:47:10;;;;;;;0.30;0.30;;;;;;;22.64;56.29;101712.06;5107990;27;20115;-74
2021/07/11 03:49:39;;;;;;;;;;;;;;;22.63;56.38;101713.91;5109550;27;20750;-75
2021/07/11 03:52:06;;;;;;;0.20;0.20;;;;;;;22.63;56.28;101710.41;5106418;27;20001;-75
2021/07/11 03:54:37;;;;;;;0.30;0.30;;;;;;;22.63;56.15;101705.13;5109688;27;20557;-75
2021/07/11 03:57:05;;;;;;;0.30;0.30;;;;;;;22.63;56.32;101705.94;5107002;28;20039;-74
2021/07/11 03:59:33;;;;;;;0.25;0.25;;;;;;;22.61;56.33;101708.75;5108286;27;20042;-74
2021/07/11 04:02:05;;;;;;;0.20;0.20;;;;;;;22.61;56.37;101708.75;5107003;27;20028;-74
2021/07/11 04:04:32;;;;;;;0.30;0.30;;;;;;;22.61;56.34;101718.53;5088246;28;20035;-75
2021/07/11 04:06:58;;;;;;;0.30;0.30;;;;;;;22.61;56.56;101713.22;5107386;27;20475;-75
2021/07/11 04:09:25;;;;;;;0.30;0.30;;;;;;;22.61;56.07;101713.22;5108266;27;20043;-74
2021/07/11 04:11:52;;;;;;;0.20;0.20;;;;;;;22.61;56.26;101711.41;5106176;27;20584;-74
2021/07/11 04:14:19;;;;;;;0.20;0.20;;;;;;;22.61;56.29;101710.56;5089042;28;20046;-75
2021/07/11 04:16:49;;;;;;;0.20;0.20;;;;;;;22.60;56.16;101711.56;5108670;27;20124;-74
2021/07/11 04:19:25;;;;;;;0.22;0.22;;;;;;;22.61;56.18;101722.00;5107830;27;20376;-75
2021/07/11 04:21:52;;;;;;;0.20;0.20;;;;;;;22.61;56.30;101708.75;5076963;28;20058;-75
2021/07/11 04:24:20;;;;;;;0.25;0.25;;;;;;;22.61;56.08;101722.00;5084330;28;20119;-75
2021/07/11 04:26:46;;;;;;;0.40;0.40;;;;;;;22.62;56.50;101717.53;5086435;28;20139;-75
2021/07/11 04:29:13;;;;;;;0.20;0.20;;;;;;;22.61;56.30;101716.69;5084851;28;20505;-74
2021/07/11 04:31:38;;;;;;;0.32;0.32;;;;;;;22.63;56.31;101715.72;5085686;28;20066;-74
2021/07/11 04:34:33;;;;;;;0.30;0.30;;;;;;;22.62;56.06;101717.53;5084793;28;20434;-74
2021/07/11 04:37:01;;;;;;;0.10;0.10;;;;;;;22.63;56.30;101721.03;5082009;28;20040;-74
2021/07/11 04:39:26;;;;;;;0.20;0.20;;;;;;;22.62;56.47;101722.84;5084935;28;20055;-74
2021/07/11 04:41:53;;;;;;;0.55;0.55;;;;;;;22.63;56.29;101729.84;5086263;28;20451;-74
2021/07/11 04:44:19;;;;;;;0.30;0.30;;;;;;;22.63;56.54;101726.34;5084670;28;20036;-74
2021/07/11 04:46:45;;;;;;;0.22;0.22;;;;;;;22.62;56.15;101720.19;5086935;28;20040;-74
2021/07/11 04:49:11;;;;;;;0.20;0.20;;;;;;;22.62;56.36;101722.84;5084359;28;20161;-74
2021/07/11 04:51:38;;;;;;;0.30;0.30;;;;;;;22.63;56.24;101718.38;5083731;28;20032;-74
2021/07/11 04:54:05;;;;;;;0.20;0.20;;;;;;;22.63;56.05;101718.38;5087278;28;20116;-74
2021/07/11 04:56:31;;;;;;;0.20;0.20;;;;;;;22.62;56.12;101717.53;5085301;28;20049;-74
2021/07/11 04:58:57;;;;;;;0.25;0.25;;;;;;;22.61;56.41;101716.69;5084928;28;20485;-74
2021/07/11 05:01:23;;;;;;;0.20;0.20;;;;;;;22.62;56.52;101720.19;5085302;28;20043;-74
2021/07/11 05:03:49;;;;;;;0.40;0.40;;;;;;;22.61;56.28;101722.00;5083749;28;20047;-74
2021/07/11 05:06:14;;;;;;;0.30;0.30;;;;;;;22.62;56.40;101725.50;5083900;28;20078;-74
2021/07/11 05:08:40;;;;;;;0.20;0.20;;;;;;;22.62;56.28;101722.84;5082640;28;20043;-74
2021/07/11 05:11:05;;;;;;;0.47;0.47;;;;;;;22.61;56.40;101722.00;5082748;28;20044;-75
2021/07/11 05:13:31;;;;;;;0.40;0.40;;;;;;;22.62;56.44;101722.84;5085303;28;20291;-74
2021/07/11 05:15:57;;;;;;;0.25;0.25;;;;;;;22.62;56.18;101725.50;5083609;28;20093;-73
2021/07/11 05:18:22;;;;;;;0.20;0.20;;;;;;;22.64;56.06;101728.00;5082811;28;20413;-74
2021/07/11 05:20:48;;;;;;;0.20;0.20;;;;;;;22.64;56.15;101725.34;5084919;28;21814;-74
2021/07/11 05:23:14;;;;;;;0.40;0.40;;;;;;;22.63;56.44;101721.88;5116774;27;20039;-74
2021/07/11 05:25:40;;;;;;;0.20;0.20;;;;;;;22.64;56.42;101725.34;5115568;27;20035;-74
2021/07/11 05:28:05;;;;;;;0.20;0.20;;;;;;;22.64;55.97;101722.69;5089626;28;20616;-74
2021/07/11 05:30:31;;;;;;;0.30;0.30;;;;;;;22.64;56.17;101720.03;5104610;27;20389;-74
2021/07/11 05:32:57;;;;;;;0.30;0.30;;;;;;;22.63;56.37;101715.72;5102191;27;20051;-74
2021/07/11 05:35:23;;;;;;;0.32;0.32;;;;;;;22.64;56.38;101723.50;5103937;27;20040;-74
2021/07/11 05:37:49;;;;;;;0.20;0.20;;;;;;;22.64;56.07;101718.22;5116340;27;20035;-74
2021/07/11 05:40:17;;;;;;;0.30;0.30;;;;;;;22.64;56.03;101714.72;5088599;28;20072;-74
2021/07/11 05:42:43;;;;;;;0.30;0.30;;;;;;;22.65;56.15;101711.06;5107081;27;20038;-74
2021/07/11 05:45:10;;;;;;;0.35;0.35;;;;;;;22.64;56.01;101712.91;5108060;27;20397;-74
2021/07/11 05:47:36;;;;;;;0.30;0.30;;;;;;;22.66;56.30;101712.72;5104634;27;20054;-74
2021/07/11 05:50:02;;;;;;;0.40;0.40;;;;;;;22.67;56.07;101714.38;5100396;27;20118;-74
2021/07/11 05:52:28;;;;;;;0.20;0.20;;;;;;;22.67;56.21;101712.53;5116106;27;20039;-74
2021/07/11 05:54:53;;;;;;;0.28;0.28;;;;;;;22.66;56.03;101705.59;5111768;27;20104;-74
2021/07/11 05:57:19;;;;;;;0.50;0.50;;;;;;;22.67;56.13;101701.91;5088517;28;20035;-74
2021/07/11 05:59:45;;;;;;;0.38;0.38;;;;;;;22.68;56.19;101708.06;5110855;27;20032;-74
2021/07/11 06:02:11;;;;;;;0.30;0.30;;;;;;;22.68;56.30;101702.75;5103727;27;20527;-74
2021/07/11 06:04:37;;;;;;;0.40;0.40;;;;;;;22.68;56.45;101695.59;5090228;27;20044;-74
2021/07/11 06:07:02;;;;;;;0.43;0.43;;;;;;;22.69;56.30;101702.56;5108261;27;20039;-74
2021/07/11 06:09:28;;;;;;;0.20;0.20;;;;;;;22.69;55.97;101697.25;5098544;27;20027;-74
2021/07/11 06:11:54;;;;;;;0.40;0.40;;;;;;;22.69;55.96;101694.59;5100712;27;20490;-74
2021/07/11 06:14:19;;;;;;;0.30;0.30;;;;;;;22.69;56.24;101699.91;5102180;27;20444;-74
2021/07/11 06:16:45;;;;;;;0.30;0.30;;;;;;;22.70;56.23;101698.91;5099525;27;20036;-74
2021/07/11 06:19:12;;;;;;;0.30;0.30;;;;;;;22.71;56.18;101703.22;5096509;27;20044;-74
2021/07/11 06:21:38;;;;;;;0.20;0.20;;;;;;;22.72;55.97;101707.50;5115917;27;20110;-74
2021/07/11 06:24:04;;;;;;;0.30;0.30;;;;;;;22.72;56.30;101704.84;5117620;27;20036;-74
2021/07/11 06:26:30;;;;;;;0.30;0.30;;;;;;;22.73;55.84;101708.34;5110251;27;20032;-74
2021/07/11 06:28:55;;;;;;;0.40;0.40;;;;;;;22.74;56.22;101704.69;5106774;27;20035;-74
2021/07/11 06:31:21;;;;;;;0.30;0.30;;;;;;;22.74;56.25;101707.34;5110158;27;20050;-74
2021/07/11 06:33:46;;;;;;;0.30;0.30;;;;;;;22.74;55.83;101700.19;5079354;27;20117;-74
2021/07/11 06:36:12;;;;;;;0.30;0.30;;;;;;;22.74;56.19;101702.84;5078789;28;20040;-74
2021/07/11 06:38:37;;;;;;;0.32;0.32;;;;;;;22.75;56.07;101707.16;5110519;28;20040;-74
2021/07/11 06:41:03;;;;;;;0.30;0.30;;;;;;;22.77;55.93;101705.13;5114827;27;20048;-74
2021/07/11 06:43:28;;;;;;;0.20;0.20;;;;;;;22.78;56.03;101698.00;5113347;27;20062;-74
2021/07/11 06:45:55;;;;;;;0.30;0.30;;;;;;;22.79;55.81;101703.13;5116328;27;20039;-75
2021/07/11 06:48:21;;;;;;;0.30;0.30;;;;;;;22.81;55.91;101703.81;5106269;27;20092;-75
2021/07/11 06:50:46;;;;;;;0.40;0.40;;;;;;;22.83;55.83;101711.63;5095677;28;20104;-74
2021/07/11 06:53:12;;;;;;;0.30;0.30;;;;;;;22.84;55.71;101711.44;5074164;28;20074;-75
2021/07/11 06:55:38;;;;;;;0.45;0.45;;;;;;;22.86;55.63;101711.25;5099340;28;20035;-75
2021/07/11 06:58:04;;;;;;;0.43;0.43;;;;;;;22.89;55.93;101706.41;5115921;28;20122;-75
2021/07/11 07:00:30;;;;;;;0.40;0.40;;;;;;;22.92;55.73;101699.91;5099866;28;20032;-74
2021/07/11 07:02:56;;;;;;;0.40;0.40;;;;;;;22.95;55.67;101696.91;5081821;28;20114;-75
2021/07/11 07:05:21;;;;;;;0.20;0.20;;;;;;;23.00;55.39;101707.84;5104268;28;20085;-75
2021/07/11 07:07:47;;;;;;;0.40;0.40;;;;;;;23.03;55.46;101703.97;5094503;28;20457;-75
2021/07/11 07:10:14;;;;;;;0.30;0.30;;;;;;;23.06;55.32;101701.78;5102315;28;20451;-75
2021/07/11 07:12:44;;;;;;;0.30;0.30;;;;;;;23.09;55.15;101712.03;5103830;28;21566;-75
2021/07/11 07:15:11;;;;;;;0.28;0.28;;;;;;;23.12;55.20;101719.66;5102079;28;20751;-75
2021/07/11 07:17:37;;;;;;;0.28;0.28;;;;;;;23.14;55.18;101711.50;5113998;28;20557;-75
2021/07/11 07:20:06;;;;;;;0.30;0.30;;;;;;;23.18;55.04;101712.81;5108839;28;20027;-74
2021/07/11 07:22:33;;;;;;;0.40;0.40;;;;;;;23.19;54.91;101712.63;5109205;28;20051;-75
2021/07/11 07:24:59;;;;;;;0.30;0.30;;;;;;;23.21;55.32;101707.13;5097347;28;20805;-75
2021/07/11 07:27:25;;;;;;;0.30;0.30;;;;;;;23.24;55.19;101706.75;5112397;28;20043;-75
2021/07/11 07:29:51;;;;;;;0.20;0.20;;;;;;;23.26;55.15;101711.91;5088765;28;20038;-75
2021/07/11 07:32:16;;;;;;;0.22;0.22;;;;;;;23.29;55.09;101708.88;5110445;28;20497;-75
2021/07/11 07:34:42;;;;;;;0.30;0.30;;;;;;;23.31;55.11;101706.84;5106402;28;20036;-75
2021/07/11 07:37:08;;;;;;;0.30;0.30;;;;;;;23.34;55.04;101714.47;5106681;28;20039;-76
2021/07/11 07:39:34;;;;;;;0.30;0.30;;;;;;;23.36;54.95;101709.81;5111656;28;20086;-75
2021/07/11 07:41:59;;;;;;;0.35;0.35;;;;;;;23.39;54.78;101706.78;5103807;28;20064;-75
2021/07/11 07:44:25;;;;;;;0.30;0.30;;;;;;;23.39;54.70;101704.97;5121522;28;20036;-75
2021/07/11 07:46:50;;;;;;;0.30;0.30;;;;;;;23.41;54.96;101708.25;5084879;28;20444;-75
2021/07/11 07:49:16;;;;;;;0.30;0.30;;;;;;;23.43;55.09;101708.91;5104255;28;20043;-75
2021/07/11 07:51:42;;;;;;;0.40;0.40;;;;;;;23.44;54.98;101707.88;5111639;28;20050;-75
2021/07/11 07:54:07;;;;;;;0.35;0.35;;;;;;;23.48;54.76;101711.00;5090642;28;20040;-75
2021/07/11 07:56:33;;;;;;;0.30;0.30;;;;;;;23.49;54.91;101710.00;5088814;28;20050;-75
2021/07/11 07:58:59;;;;;;;0.22;0.22;;;;;;;23.52;54.89;101714.97;5103113;27;20255;-76
2021/07/11 08:01:24;;;;;;;0.30;0.30;;;;;;;23.54;54.97;101712.94;5113095;27;20063;-76
2021/07/11 08:03:50;;;;;;;0.40;0.40;;;;;;;23.57;54.55;101709.13;5115759;27;20035;-77
2021/07/11 08:06:15;;;;;;;0.30;0.30;;;;;;;23.58;54.75;101716.09;5108393;27;20040;-74
2021/07/11 08:08:41;;;;;;;0.38;0.38;;;;;;;23.59;54.75;101715.06;5118277;27;20055;-75
2021/07/11 08:11:07;;;;;;;0.30;0.30;;;;;;;23.60;54.59;101722.88;5103271;27;20039;-78
2021/07/11 08:13:37;;;;;;;0.35;0.35;;;;;;;23.61;54.79;101724.53;5105737;27;20023;-77
2021/07/11 08:16:04;;;;;;;0.43;0.43;;;;;;;23.63;54.66;101724.34;5103046;27;20053;-77
2021/07/11 08:18:30;;;;;;;0.43;0.43;;;;;;;23.64;54.79;101721.50;5098988;27;20542;-77
2021/07/11 08:20:55;;;;;;;0.30;0.30;;;;;;;23.65;54.70;101719.66;5107636;27;20035;-77
2021/07/11 08:23:21;;;;;;;0.20;0.20;;;;;;;23.68;54.85;101727.25;5107876;27;20059;-77
2021/07/11 08:25:46;;;;;;;0.30;0.30;;;;;;;23.69;54.81;101723.59;5108449;27;20065;-77
2021/07/11 08:28:12;;;;;;;0.20;0.20;;;;;;;23.70;54.67;101735.91;5104421;28;20040;-77
2021/07/11 08:30:37;;;;;;;0.50;0.50;;;;;;;23.70;54.70;101727.94;5108020;27;20039;-77
2021/07/11 08:33:03;;;;;;;0.30;0.30;;;;;;;23.72;54.72;101740.03;5091459;28;20054;-77
2021/07/11 08:35:29;;;;;;;0.40;0.40;;;;;;;23.74;54.55;101739.84;5109681;27;20047;-77
2021/07/11 08:37:54;;;;;;;0.25;0.25;;;;;;;23.74;54.69;101742.50;5089349;28;20047;-77
2021/07/11 08:40:20;;;;;;;0.32;0.32;;;;;;;23.75;54.73;101750.28;5111454;27;20047;-77
2021/07/11 08:42:49;;;;;;;0.20;0.20;;;;;;;23.77;54.69;101750.09;5074473;28;20084;-77
2021/07/11 08:45:14;;;;;;;0.30;0.30;;;;;;;23.78;54.49;101749.09;5108435;27;20112;-77
2021/07/11 08:47:40;;;;;;;0.40;0.40;;;;;;;23.79;54.66;101748.09;5087991;28;20047;-77
2021/07/11 08:50:07;;;;;;;0.30;0.30;;;;;;;23.78;54.66;101752.56;5107215;28;20445;-77
2021/07/11 08:52:37;;;;;;;0.40;0.40;;;;;;;23.78;54.82;101755.25;5087949;27;20072;-77
2021/07/11 08:55:12;;;;;;;0.35;0.35;;;;;;;23.77;54.50;101758.09;5089572;28;20051;-77
2021/07/11 08:57:38;;;;;;;0.43;0.43;;;;;;;23.74;54.72;101753.97;5089353;27;20038;-78
2021/07/11 09:00:05;;;;;;;0.55;0.55;;;;;;;23.73;54.92;101754.16;5088447;28;20036;-78
2021/07/11 09:02:31;;;;;;;0.45;0.45;;;;;;;23.72;54.71;101750.66;5106776;27;20118;-78
2021/07/11 09:04:56;;;;;;;0.43;0.43;;;;;;;23.70;54.84;101744.72;5104498;28;20081;-78
2021/07/11 09:07:23;;;;;;;0.50;0.50;;;;;;;23.71;54.79;101745.53;5103687;27;20031;-78
2021/07/11 09:09:57;;;;;;;0.40;0.40;;;;;;;23.70;54.88;101750.03;5112409;27;20031;-77
2021/07/11 09:12:23;;;;;;;0.57;0.57;;;;;;;23.71;54.89;101748.19;5114960;27;20561;-78
2021/07/11 09:14:51;;;;;;;0.40;0.40;;;;;;;23.70;54.95;101758.00;5092130;27;20042;-77
2021/07/11 09:17:18;;;;;;;0.50;0.50;;;;;;;23.69;54.91;101764.31;5102771;27;20031;-77
2021/07/11 09:19:48;;;;;;;0.63;0.63;;;;;;;23.68;54.86;101761.81;5087647;28;20058;-78
2021/07/11 09:22:20;;;;;;;0.57;0.57;;;;;;;23.68;54.86;101761.81;5105228;27;20446;-77
2021/07/11 09:24:57;;;;;;;0.68;0.68;;;;;;;23.67;55.06;101761.00;5105004;27;20381;-78
2021/07/11 09:27:26;;;;;;;0.60;0.60;;;;;;;23.66;55.10;101761.19;5105573;27;20039;-77
2021/07/11 09:29:58;;;;;;;0.73;0.73;;;;;;;23.66;54.92;101761.19;5103349;28;20034;-78
2021/07/11 09:32:30;;;;;;;0.73;0.73;;;;;;;23.65;54.70;101764.84;5105220;27;20067;-78
2021/07/11 09:35:13;;;;;;;0.70;0.70;;;;;;;23.64;55.34;101768.53;5105831;28;20039;-77
2021/07/11 09:37:41;;;;;;;0.50;0.50;;;;;;;23.64;55.15;101774.66;5101226;27;20031;-79
2021/07/11 09:40:09;;;;;;;0.70;0.70;;;;;;;23.64;54.98;101774.66;5104907;28;20458;-79
2021/07/11 09:42:37;;;;;;;0.60;0.60;;;;;;;23.63;55.18;101765.03;5073459;27;20061;-76
2021/07/11 09:45:06;;;;;;;0.57;0.57;;;;;;;23.64;54.97;101769.34;5111471;27;20027;-79
2021/07/11 09:47:32;;;;;;;0.65;0.65;;;;;;;23.65;55.07;101773.66;5116088;27;20039;-78
2021/07/11 09:50:08;;;;;;;0.80;0.80;;;;;;;23.65;54.91;101767.50;5093024;28;20043;-81
2021/07/11 09:52:34;;;;;;;0.70;0.70;;;;;;;23.65;54.96;101770.16;5101921;27;20035;-78
2021/07/11 09:55:11;;;;;;;0.82;0.82;;;;;;;23.65;55.21;101772.84;5087739;28;20371;-76
2021/07/11 09:57:44;;;;;;;0.63;0.63;;;;;;;23.64;54.93;101764.03;5118104;27;20287;-76
2021/07/11 10:00:24;;;;;;;0.60;0.60;;;;;;;23.64;55.07;101766.69;5106125;27;20385;-78
2021/07/11 10:02:53;;;;;;;0.70;0.70;;;;;;;23.65;54.87;101765.69;5104194;28;20043;-78
2021/07/11 10:05:20;;;;;;;0.70;0.70;;;;;;;23.65;55.02;101767.50;5084497;28;20058;-76
2021/07/11 10:07:46;;;;;;;0.65;0.65;;;;;;;23.65;55.03;101757.69;5115269;27;20586;-78
2021/07/11 10:10:18;;;;;;;0.68;0.68;;;;;;;23.66;55.00;101759.34;5105416;28;20477;-76
2021/07/11 10:12:45;;;;;;;0.60;0.60;;;;;;;23.66;55.17;101758.53;5106687;27;20044;-77
2021/07/11 10:15:16;;;;;;;0.70;0.70;;;;;;;23.65;55.30;101763.03;5122258;27;20032;-76
2021/07/11 10:17:46;;;;;;;0.60;0.60;;;;;;;23.65;55.02;101755.03;5123213;27;20123;-76
2021/07/11 10:20:15;;;;;;;0.45;0.45;;;;;;;23.65;55.27;101757.69;5087309;28;20916;-79
2021/07/11 10:22:45;;;;;;;0.60;0.60;;;;;;;23.66;55.34;101753.22;5105456;28;20044;-77
2021/07/11 10:25:26;;;;;;;0.50;0.50;;;;;;;23.66;55.16;101758.53;5104766;28;20111;-76
2021/07/11 10:28:07;;;;;;;0.40;0.40;;;;;;;23.66;55.14;101758.53;5106763;27;20035;-76
2021/07/11 10:30:34;;;;;;;0.43;0.43;;;;;;;23.66;55.22;101755.88;5091949;27;20035;-76
2021/07/11 10:33:10;;;;;;;0.50;0.50;;;;;;;23.67;55.01;101757.53;5103660;27;20035;-76
2021/07/11 10:35:46;;;;;;;0.52;0.52;;;;;;;23.67;55.30;101757.53;5106152;27;20362;-75
2021/07/11 10:38:12;;;;;;;0.50;0.50;;;;;;;23.68;55.13;101767.97;5103006;28;20023;-76
2021/07/11 10:40:38;;;;;;;0.60;0.60;;;;;;;23.67;55.07;101768.97;5104808;27;20495;-76
2021/07/11 10:43:12;;;;;;;0.50;0.50;;;;;;;23.66;55.22;101761.19;5103753;28;20039;-77
2021/07/11 10:45:44;;;;;;;0.65;0.65;;;;;;;23.66;55.23;101761.19;5104459;27;20071;-76
2021/07/11 10:48:10;;;;;;;0.60;0.60;;;;;;;23.66;55.26;101758.53;5104697;28;20065;-76
2021/07/11 10:50:41;;;;;;;0.45;0.45;;;;;;;23.65;55.03;101763.03;5104488;28;20051;-75
2021/07/11 10:53:17;;;;;;;0.60;0.60;;;;;;;23.66;55.24;101759.34;5105551;28;20046;-76
2021/07/11 10:55:43;;;;;;;0.70;0.70;;;;;;;23.67;55.01;101757.53;5087331;28;20473;-76
2021/07/11 10:58:19;;;;;;;0.60;0.60;;;;;;;23.67;55.16;101757.53;5057784;28;20393;-76
2021/07/11 11:00:46;;;;;;;0.60;0.60;;;;;;;23.67;55.23;101757.53;5107141;28;20039;-75
2021/07/11 11:03:30;;;;;;;0.55;0.55;;;;;;;23.67;55.17;101761.00;5106429;28;20027;-75
2021/07/11 11:05:55;;;;;;;0.35;0.35;;;;;;;23.68;54.92;101767.16;5107353;28;20035;-76
2021/07/11 11:08:25;;;;;;;0.60;0.60;;;;;;;23.68;55.06;101759.16;5105609;28;20039;-74
2021/07/11 11:10:53;;;;;;;0.47;0.47;;;;;;;23.68;55.29;101757.34;5105606;28;20036;-75
2021/07/11 11:13:21;;;;;;;0.60;0.60;;;;;;;23.69;55.07;101750.19;5100643;28;20040;-75
2021/07/11 11:15:55;;;;;;;0.52;0.52;;;;;;;23.68;54.98;101748.53;5103655;28;20114;-75
2021/07/11 11:18:21;;;;;;;0.40;0.40;;;;;;;23.67;55.21;101747.72;5102795;28;20097;-76
2021/07/11 11:20:54;;;;;;;0.63;0.63;;;;;;;23.67;55.30;101746.88;5103669;28;20123;-77
2021/07/11 11:23:20;;;;;;;0.45;0.45;;;;;;;23.66;55.13;101750.56;5102374;28;20044;-77
2021/07/11 11:25:46;;;;;;;0.40;0.40;;;;;;;23.66;55.40;101751.38;5098580;28;20067;-77
2021/07/11 11:28:12;;;;;;;0.50;0.50;;;;;;;23.64;55.30;101752.56;5083410;28;20067;-77
2021/07/11 11:30:40;;;;;;;0.50;0.50;;;;;;;23.64;55.17;101755.22;5106007;28;20520;-77